createdAt,value
2018-05-09T00:00:24.401Z,99.90
2018-05-09T00:02:51.936Z,99.90
2018-05-09T00:05:19.493Z,99.90
2018-05-09T00:07:47.810Z,99.90
2018-05-09T00:10:15.338Z,99.90
2018-05-09T00:12:42.899Z,99.90
2018-05-09T00:15:10.426Z,99.90
2018-05-09T00:17:37.977Z,99.90
2018-05-09T00:20:05.524Z,99.90
2018-05-09T00:22:33.090Z,99.90
2018-05-09T00:25:02.130Z,99.90
2018-05-09T00:27:29.681Z,99.90
2018-05-09T00:29:57.982Z,99.90
2018-05-09T00:32:25.531Z,99.90
2018-05-09T00:34:53.068Z,99.90
2018-05-09T00:37:21.388Z,99.90
2018-05-09T00:39:48.899Z,99.90
2018-05-09T00:42:16.464Z,99.90
2018-05-09T00:44:44.758Z,99.90
2018-05-09T00:47:13.155Z,99.90
2018-05-09T00:49:40.704Z,99.90
2018-05-09T00:52:08.236Z,99.90
2018-05-09T00:54:35.782Z,99.90
2018-05-09T00:57:03.321Z,99.90
2018-05-09T00:59:30.839Z,99.90
2018-05-09T01:01:58.383Z,99.90
2018-05-09T01:04:26.685Z,99.90
2018-05-09T01:06:54.220Z,99.90
2018-05-09T01:09:22.532Z,99.90
2018-05-09T01:11:50.881Z,99.90
2018-05-09T01:14:19.201Z,99.90
2018-05-09T01:16:47.671Z,99.90
2018-05-09T01:19:15.200Z,99.90
2018-05-09T01:21:43.514Z,99.90
2018-05-09T01:24:11.070Z,99.90
2018-05-09T01:26:38.627Z,99.90
2018-05-09T01:29:06.158Z,99.90
2018-05-09T01:31:34.456Z,99.90
2018-05-09T01:34:02.001Z,99.90
2018-05-09T01:36:29.564Z,99.90
2018-05-09T01:38:57.102Z,99.90
2018-05-09T01:41:25.395Z,99.90
2018-05-09T01:43:53.692Z,99.90
2018-05-09T01:46:21.256Z,99.90
2018-05-09T01:48:48.790Z,99.90
2018-05-09T01:51:17.101Z,99.90
2018-05-09T01:53:44.655Z,99.90
2018-05-09T01:56:12.189Z,99.90
2018-05-09T01:58:40.494Z,99.90
2018-05-09T02:01:08.029Z,99.90
2018-05-09T02:03:35.574Z,99.90
2018-05-09T02:06:03.929Z,99.90
2018-05-09T02:08:31.451Z,99.90
2018-05-09T02:10:58.985Z,99.90
2018-05-09T02:13:26.559Z,99.90
2018-05-09T02:15:54.100Z,99.90
2018-05-09T02:18:22.437Z,99.90
2018-05-09T02:20:49.957Z,99.90
2018-05-09T02:23:17.488Z,99.90
2018-05-09T02:25:45.768Z,99.90
2018-05-09T02:28:14.085Z,99.90
2018-05-09T02:30:41.620Z,99.90
2018-05-09T02:33:09.167Z,99.90
2018-05-09T02:35:36.701Z,99.90
2018-05-09T02:38:04.238Z,99.90
2018-05-09T02:40:31.785Z,99.90
2018-05-09T02:42:59.326Z,99.90
2018-05-09T02:45:26.888Z,99.90
2018-05-09T02:47:54.423Z,99.90
2018-05-09T02:50:22.740Z,99.90
2018-05-09T02:52:50.280Z,99.90
2018-05-09T02:55:17.932Z,99.90
2018-05-09T02:57:45.478Z,99.90
2018-05-09T03:00:13.864Z,99.90
2018-05-09T03:02:41.373Z,99.90
2018-05-09T03:05:08.909Z,99.90
2018-05-09T03:07:36.475Z,99.90
2018-05-09T03:10:04.004Z,99.90
2018-05-09T03:12:32.295Z,99.90
2018-05-09T03:14:59.823Z,99.90
2018-05-09T03:17:28.155Z,99.90
2018-05-09T03:19:55.669Z,99.90
2018-05-09T03:22:23.970Z,99.90
2018-05-09T03:24:51.504Z,99.90
2018-05-09T03:27:19.839Z,99.90
2018-05-09T03:29:47.384Z,99.90
2018-05-09T03:32:14.925Z,99.90
2018-05-09T03:34:42.458Z,99.90
2018-05-09T03:37:10.764Z,99.90
2018-05-09T03:39:38.302Z,99.90
2018-05-09T03:42:06.605Z,99.90
2018-05-09T03:44:34.154Z,99.90
2018-05-09T03:47:01.695Z,99.90
2018-05-09T03:49:30.013Z,99.90
2018-05-09T03:51:57.562Z,99.90
2018-05-09T03:54:25.131Z,99.90
2018-05-09T03:56:52.692Z,99.90
2018-05-09T03:59:20.246Z,99.90
2018-05-09T04:01:59.808Z,99.90
2018-05-09T04:04:39.111Z,99.90
2018-05-09T04:07:18.508Z,99.90
2018-05-09T04:09:52.615Z,99.90
2018-05-09T04:12:20.144Z,99.90
2018-05-09T04:14:47.777Z,99.90
2018-05-09T04:17:16.035Z,99.90
2018-05-09T04:19:44.354Z,99.90
2018-05-09T04:22:11.887Z,99.90
2018-05-09T04:24:39.445Z,99.90
2018-05-09T04:27:07.765Z,99.90
2018-05-09T04:29:35.298Z,99.90
2018-05-09T04:32:02.897Z,99.90
2018-05-09T04:34:30.457Z,99.90
2018-05-09T04:36:58.005Z,99.90
2018-05-09T04:39:25.590Z,99.90
2018-05-09T04:41:53.147Z,99.90
2018-05-09T04:44:20.693Z,99.90
2018-05-09T04:46:48.246Z,99.90
2018-05-09T04:49:15.808Z,99.90
2018-05-09T04:51:43.380Z,99.90
2018-05-09T04:54:10.915Z,99.90
2018-05-09T04:56:38.461Z,99.90
2018-05-09T04:59:05.981Z,99.90
2018-05-09T05:01:34.314Z,99.90
2018-05-09T05:04:01.828Z,99.90
2018-05-09T05:06:30.107Z,99.90
2018-05-09T05:08:58.425Z,99.90
2018-05-09T05:11:25.963Z,99.90
2018-05-09T05:13:53.521Z,99.90
2018-05-09T05:16:21.076Z,99.90
2018-05-09T05:18:48.623Z,99.90
2018-05-09T05:21:16.935Z,99.90
2018-05-09T05:23:44.514Z,99.90
2018-05-09T05:26:12.065Z,99.90
2018-05-09T05:28:39.628Z,99.90
2018-05-09T05:31:07.175Z,99.90
2018-05-09T05:33:34.752Z,99.90
2018-05-09T05:36:02.318Z,99.90
2018-05-09T05:38:29.857Z,99.90
2018-05-09T05:40:57.411Z,99.90
2018-05-09T05:43:24.981Z,99.90
2018-05-09T05:45:52.538Z,99.90
2018-05-09T05:48:20.093Z,99.90
2018-05-09T05:50:47.660Z,99.90
2018-05-09T05:53:15.973Z,99.90
2018-05-09T05:55:43.499Z,99.90
2018-05-09T05:58:11.058Z,99.90
2018-05-09T06:00:38.588Z,99.90
2018-05-09T06:03:06.107Z,99.90
2018-05-09T06:05:33.663Z,99.90
2018-05-09T06:08:01.246Z,99.90
2018-05-09T06:10:28.816Z,99.90
2018-05-09T06:12:56.370Z,99.90
2018-05-09T06:15:24.647Z,99.90
2018-05-09T06:17:52.977Z,99.90
2018-05-09T06:20:20.514Z,99.90
2018-05-09T06:22:48.069Z,99.90
2018-05-09T06:25:15.589Z,99.90
2018-05-09T06:27:43.133Z,99.90
2018-05-09T06:30:10.707Z,99.90
2018-05-09T06:32:38.242Z,99.90
2018-05-09T06:35:05.804Z,99.90
2018-05-09T06:37:33.332Z,99.90
2018-05-09T06:40:00.888Z,99.90
2018-05-09T06:42:28.435Z,99.90
2018-05-09T06:44:55.982Z,99.90
2018-05-09T06:47:23.553Z,99.90
2018-05-09T06:49:51.154Z,99.90
2018-05-09T06:52:19.428Z,99.90
2018-05-09T06:54:47.020Z,99.90
2018-05-09T06:57:14.548Z,99.90
2018-05-09T06:59:42.133Z,99.90
2018-05-09T07:02:09.656Z,99.90
2018-05-09T07:04:37.263Z,99.90
2018-05-09T07:07:04.820Z,99.90
2018-05-09T07:09:32.368Z,99.90
2018-05-09T07:11:59.968Z,99.90
2018-05-09T07:14:27.530Z,99.90
2018-05-09T07:16:55.861Z,99.90
2018-05-09T07:19:23.436Z,99.90
2018-05-09T07:21:50.965Z,99.90
2018-05-09T07:24:18.546Z,99.90
2018-05-09T07:26:46.107Z,99.90
2018-05-09T07:29:13.684Z,99.90
2018-05-09T07:31:41.252Z,99.90
2018-05-09T07:34:08.859Z,99.90
2018-05-09T07:36:36.408Z,99.90
2018-05-09T07:39:03.960Z,99.90
2018-05-09T07:41:31.557Z,99.90
2018-05-09T07:43:59.730Z,99.90
2018-05-09T07:46:27.284Z,99.90
2018-05-09T07:48:54.855Z,99.90
2018-05-09T07:51:22.434Z,99.90
2018-05-09T07:53:49.995Z,99.90
2018-05-09T07:56:17.524Z,99.90
2018-05-09T07:58:45.104Z,99.90
2018-05-09T08:01:12.673Z,99.90
2018-05-09T08:03:40.192Z,99.90
2018-05-09T08:06:07.774Z,99.90
2018-05-09T08:08:35.315Z,99.90
2018-05-09T08:11:02.893Z,99.90
2018-05-09T08:13:30.458Z,99.90
2018-05-09T08:15:58.053Z,99.90
2018-05-09T08:18:25.625Z,97.60
2018-05-09T08:20:53.980Z,99.30
2018-05-09T08:23:21.580Z,99.20
2018-05-09T08:25:49.151Z,99.20
2018-05-09T08:28:16.746Z,99.70
2018-05-09T08:30:44.292Z,99.90
2018-05-09T08:33:12.636Z,99.90
2018-05-09T08:35:40.209Z,99.90
2018-05-09T08:38:07.790Z,99.80
2018-05-09T08:40:35.365Z,99.70
2018-05-09T08:43:02.916Z,99.30
2018-05-09T08:45:30.499Z,98.70
2018-05-09T08:47:58.051Z,98.30
2018-05-09T08:50:25.606Z,96.40
2018-05-09T08:52:53.165Z,97.00
2018-05-09T08:55:20.767Z,97.10
2018-05-09T08:57:49.109Z,97.50
2018-05-09T09:00:16.643Z,97.50
2018-05-09T09:02:44.238Z,97.90
2018-05-09T09:05:11.803Z,98.90
2018-05-09T09:07:39.352Z,98.90
2018-05-09T09:10:06.915Z,98.70
2018-05-09T09:12:35.271Z,99.90
2018-05-09T09:15:02.842Z,99.90
2018-05-09T09:17:30.400Z,99.90
2018-05-09T09:19:57.951Z,99.80
2018-05-09T09:22:25.677Z,99.40
2018-05-09T09:24:54.011Z,99.90
2018-05-09T09:27:21.578Z,99.90
2018-05-09T09:29:49.138Z,99.90
2018-05-09T09:32:16.725Z,98.60
2018-05-09T09:34:44.288Z,96.90
2018-05-09T09:37:12.623Z,98.50
2018-05-09T09:39:40.962Z,97.30
2018-05-09T09:42:08.569Z,97.70
2018-05-09T09:44:36.156Z,96.90
2018-05-09T09:47:04.501Z,98.60
2018-05-09T09:49:32.107Z,98.60
2018-05-09T09:51:59.673Z,96.00
2018-05-09T09:54:27.235Z,97.50
2018-05-09T09:56:54.789Z,97.20
2018-05-09T09:59:22.344Z,96.50
2018-05-09T10:01:50.666Z,98.10
2018-05-09T10:04:18.209Z,98.10
2018-05-09T10:06:45.790Z,95.70
2018-05-09T10:09:13.340Z,95.80
2018-05-09T10:11:40.880Z,94.80
2018-05-09T10:14:08.467Z,98.90
2018-05-09T10:16:36.019Z,97.30
2018-05-09T10:19:03.611Z,96.70
2018-05-09T10:21:31.177Z,98.20
2018-05-09T10:23:59.480Z,96.10
2018-05-09T10:26:27.012Z,96.20
2018-05-09T10:28:54.561Z,93.20
2018-05-09T10:31:22.192Z,95.10
2018-05-09T10:33:49.726Z,94.80
2018-05-09T10:36:17.303Z,95.60
2018-05-09T10:38:45.617Z,91.60
2018-05-09T10:41:13.181Z,91.60
2018-05-09T10:43:40.720Z,91.30
2018-05-09T10:46:08.272Z,92.00
2018-05-09T10:48:35.843Z,91.60
2018-05-09T10:51:03.404Z,91.90
2018-05-09T10:53:30.942Z,91.00
2018-05-09T10:55:58.507Z,91.40
2018-05-09T10:58:26.086Z,90.00
2018-05-09T11:00:53.649Z,92.60
2018-05-09T11:03:21.204Z,91.80
2018-05-09T11:05:48.742Z,91.90
2018-05-09T11:08:16.328Z,93.30
2018-05-09T11:10:43.891Z,91.50
2018-05-09T11:13:11.495Z,92.50
2018-05-09T11:15:39.084Z,91.00
2018-05-09T11:18:06.633Z,93.00
2018-05-09T11:20:34.200Z,92.20
2018-05-09T11:23:01.762Z,91.80
2018-05-09T11:25:29.309Z,95.30
